Time;durP1;ratioP1;P1;durP2;ratioP2;P2;SDS_P1;SDS_P2;PMS_P1;PMS_P2;Temp;Humidity;BMP_temperature;BMP_pressure;BME280_temperature;BME280_humidity;BME280_pressure;Samples;Min_cycle;Max_cycle;Signal;HPM_P1;HPM_P2
2022/08/20 00:01:27;;;;;;;10.07;4.40;;;18.50;99.90;;;;;;5093362;28;20062;-80
2022/08/20 00:03:52;;;;;;;14.90;4.72;;;18.90;99.90;;;;;;5093275;28;20044;-81
2022/08/20 00:06:21;;;;;;;11.32;4.45;;;18.60;99.90;;;;;;5093108;28;20120;-80
2022/08/20 00:08:48;;;;;;;10.73;4.38;;;19.00;99.90;;;;;;5093016;28;20409;-80
2022/08/20 00:11:18;;;;;;;11.18;4.85;;;18.50;99.90;;;;;;5093063;28;20052;-80
2022/08/20 00:13:48;;;;;;;9.77;3.95;;;18.70;99.90;;;;;;5074969;28;20130;-79
2022/08/20 00:16:16;;;;;;;10.70;4.07;;;18.50;99.90;;;;;;5092576;28;20063;-77
2022/08/20 00:18:42;;;;;;;9.23;4.22;;;18.60;99.90;;;;;;5091725;28;20052;-77
2022/08/20 00:21:12;;;;;;;9.02;3.80;;;18.70;99.90;;;;;;5092578;28;20130;-77
2022/08/20 00:23:40;;;;;;;9.52;4.10;;;18.30;99.90;;;;;;5093012;28;20055;-78
2022/08/20 00:26:06;;;;;;;11.98;4.50;;;18.70;99.90;;;;;;5092857;28;20047;-80
2022/08/20 00:28:33;;;;;;;9.45;3.65;;;18.50;99.90;;;;;;5092914;28;20462;-79
2022/08/20 00:30:58;;;;;;;11.32;3.58;;;18.60;99.90;;;;;;5091401;28;20549;-78
2022/08/20 00:33:24;;;;;;;10.30;4.25;;;18.50;99.90;;;;;;5091412;28;20047;-78
2022/08/20 00:35:55;;;;;;;10.20;3.30;;;18.60;99.90;;;;;;5092712;28;20040;-78
2022/08/20 00:38:21;;;;;;;11.50;4.05;;;18.40;99.90;;;;;;5092181;28;20043;-79
2022/08/20 00:40:54;;;;;;;13.35;4.20;;;18.50;99.90;;;;;;5092695;28;20091;-78
2022/08/20 00:43:34;;;;;;;9.90;3.15;;;18.40;99.90;;;;;;5091382;28;20044;-80
2022/08/20 00:46:07;;;;;;;8.35;3.45;;;18.10;99.90;;;;;;5074874;28;20110;-79
2022/08/20 00:48:35;;;;;;;12.23;3.55;;;18.50;99.90;;;;;;5092664;28;20056;-79
2022/08/20 00:51:29;;;;;;;11.68;3.28;;;18.40;99.90;;;;;;5092272;28;20098;-78
2022/08/20 00:54:01;;;;;;;6.28;3.25;;;18.40;99.90;;;;;;5092541;28;20040;-81
2022/08/20 00:56:29;;;;;;;10.98;3.50;;;18.30;99.90;;;;;;5092883;28;20104;-80
2022/08/20 00:58:55;;;;;;;8.35;3.25;;;18.00;99.90;;;;;;5092588;28;20071;-80
2022/08/20 01:01:21;;;;;;;15.20;3.95;;;18.30;99.90;;;;;;5091312;28;20094;-80
2022/08/20 01:03:48;;;;;;;8.68;3.92;;;18.20;99.90;;;;;;5091424;28;20052;-78
2022/08/20 01:06:14;;;;;;;8.82;3.33;;;18.10;99.90;;;;;;5092053;28;20040;-77
2022/08/20 01:08:40;;;;;;;7.13;3.40;;;18.20;99.90;;;;;;5092234;28;20365;-77
2022/08/20 01:11:09;;;;;;;10.38;3.20;;;18.30;99.90;;;;;;5092294;28;20036;-78
2022/08/20 01:13:37;;;;;;;10.50;3.50;;;18.30;99.90;;;;;;5090982;28;20048;-78
2022/08/20 01:16:08;;;;;;;11.43;3.55;;;18.30;99.90;;;;;;5092267;28;20059;-77
2022/08/20 01:18:36;;;;;;;10.70;3.28;;;18.10;99.90;;;;;;5092225;28;20484;-76
2022/08/20 01:21:05;;;;;;;12.68;3.35;;;18.30;99.90;;;;;;5091886;28;20454;-78
2022/08/20 01:23:47;;;;;;;5.47;3.42;;;17.90;99.90;;;;;;5092119;28;20051;-77
2022/08/20 01:26:24;;;;;;;14.07;3.67;;;18.00;99.90;;;;;;5092173;28;20399;-78
2022/08/20 01:28:54;;;;;;;8.07;3.25;;;18.20;99.90;;;;;;5094403;28;20044;-78
2022/08/20 01:31:23;;;;;;;9.35;2.80;;;17.80;99.90;;;;;;5096303;28;20082;-79
2022/08/20 01:33:51;;;;;;;6.20;3.10;;;17.80;99.90;;;;;;5078055;28;20044;-77
2022/08/20 01:36:22;;;;;;;6.97;2.92;;;17.80;99.90;;;;;;5095907;28;20048;-77
2022/08/20 01:38:48;;;;;;;10.43;3.10;;;17.30;99.90;;;;;;5096143;28;20048;-77
2022/08/20 01:41:32;;;;;;;8.95;3.10;;;17.60;99.90;;;;;;5094732;28;20067;-77
2022/08/20 01:43:58;;;;;;;10.75;2.95;;;17.50;99.90;;;;;;5095994;28;20086;-79
2022/08/20 01:46:32;;;;;;;9.60;2.92;;;17.10;99.90;;;;;;5095695;28;20464;-78
2022/08/20 01:49:05;;;;;;;13.48;3.10;;;17.40;99.90;;;;;;5095659;28;20191;-79
2022/08/20 01:51:31;;;;;;;10.55;2.85;;;17.10;99.90;;;;;;5095982;28;20052;-78
2022/08/20 01:53:58;;;;;;;;;;;17.30;99.90;;;;;;5096132;28;20043;-77
2022/08/20 01:56:27;;;;;;;12.10;2.55;;;17.00;99.90;;;;;;5095814;28;20081;-78
2022/08/20 01:58:55;;;;;;;10.23;2.75;;;17.10;99.90;;;;;;5095423;28;20564;-77
2022/08/20 02:01:37;;;;;;;9.85;2.90;;;17.30;99.90;;;;;;5094576;28;20110;-78
2022/08/20 02:04:06;;;;;;;8.27;2.88;;;17.10;99.90;;;;;;5095344;28;20831;-77
2022/08/20 02:06:34;;;;;;;9.10;2.28;;;16.90;99.90;;;;;;5095603;28;20052;-78
2022/08/20 02:09:01;;;;;;;11.25;2.90;;;17.00;99.90;;;;;;5095545;28;20452;-77
2022/08/20 02:11:29;;;;;;;9.45;2.35;;;16.80;99.90;;;;;;5095143;28;20391;-77
2022/08/20 02:13:56;;;;;;;13.70;2.72;;;16.80;99.90;;;;;;5094059;28;20105;-80
2022/08/20 02:16:30;;;;;;;9.27;2.30;;;17.30;99.90;;;;;;5095396;28;20091;-78
2022/08/20 02:19:00;;;;;;;8.25;2.45;;;16.90;99.90;;;;;;5095159;28;20048;-78
2022/08/20 02:21:30;;;;;;;12.00;2.10;;;17.00;99.90;;;;;;5094273;28;20040;-77
2022/08/20 02:23:56;;;;;;;11.20;2.88;;;17.10;99.90;;;;;;5094906;28;20051;-78
2022/08/20 02:26:24;;;;;;;9.20;2.25;;;16.80;99.90;;;;;;5095106;28;20086;-77
2022/08/20 02:28:51;;;;;;;10.13;2.60;;;16.90;99.90;;;;;;5095175;28;20044;-79
2022/08/20 02:31:19;;;;;;;8.32;2.30;;;16.70;99.90;;;;;;5095040;28;20067;-78
2022/08/20 02:33:45;;;;;;;10.32;2.30;;;17.00;99.90;;;;;;5094652;28;20032;-78
2022/08/20 02:36:12;;;;;;;;;;;17.10;99.90;;;;;;5095529;28;20051;-79
2022/08/20 02:38:39;;;;;;;12.00;3.78;;;16.80;99.90;;;;;;5094813;28;19934;-77
2022/08/20 02:41:06;;;;;;;10.05;2.08;;;16.70;99.90;;;;;;5094955;28;20101;-77
2022/08/20 02:43:32;;;;;;;11.52;2.00;;;17.10;99.90;;;;;;5110860;28;20052;-78
2022/08/20 02:45:58;;;;;;;7.35;1.80;;;16.80;99.90;;;;;;5094828;28;20048;-77
2022/08/20 02:48:25;;;;;;;11.07;1.85;;;16.90;99.90;;;;;;5093523;28;20491;-77
2022/08/20 02:50:57;;;;;;;11.02;2.25;;;16.80;99.90;;;;;;5094758;28;20531;-76
2022/08/20 02:53:25;;;;;;;9.85;1.90;;;17.10;99.90;;;;;;5094786;28;20430;-77
2022/08/20 02:55:51;;;;;;;11.23;1.90;;;16.70;99.90;;;;;;5094387;28;20520;-78
2022/08/20 02:58:17;;;;;;;;;;;16.60;99.90;;;;;;5093736;28;20036;-79
2022/08/20 03:00:43;;;;;;;7.87;2.10;;;16.80;99.90;;;;;;5093366;28;19920;-75
2022/08/20 03:03:10;;;;;;;14.45;2.80;;;16.60;99.90;;;;;;5094276;28;20300;-75
2022/08/20 03:05:38;;;;;;;11.43;2.75;;;16.90;99.90;;;;;;5094451;28;20063;-76
2022/08/20 03:08:07;;;;;;;13.80;2.60;;;16.60;99.90;;;;;;5094484;28;20856;-76
2022/08/20 03:10:34;;;;;;;10.77;2.25;;;16.80;99.90;;;;;;5094300;28;20040;-77
2022/08/20 03:13:02;;;;;;;9.43;2.40;;;16.70;99.90;;;;;;5076265;28;20044;-77
2022/08/20 03:15:30;;;;;;;13.65;1.92;;;16.80;99.90;;;;;;5094236;28;20044;-77
2022/08/20 03:17:56;;;;;;;10.40;2.30;;;16.60;99.90;;;;;;5093983;28;20051;-78
2022/08/20 03:20:22;;;;;;;;;;;16.70;99.90;;;;;;5094576;28;20085;-80
2022/08/20 03:22:50;;;;;;;11.90;2.92;;;17.00;99.90;;;;;;5094118;28;19927;-76
2022/08/20 03:25:16;;;;;;;7.43;2.08;;;16.80;99.90;;;;;;5094038;28;20048;-77
2022/08/20 03:27:42;;;;;;;;;;;16.80;99.90;;;;;;5094477;28;20040;-78
2022/08/20 03:30:12;;;;;;;8.38;2.10;;;16.40;99.90;;;;;;5093670;28;20393;-77
2022/08/20 03:32:39;;;;;;;10.77;1.95;;;17.10;99.90;;;;;;5092797;28;20048;-78
2022/08/20 03:35:07;;;;;;;9.60;2.00;;;16.90;99.90;;;;;;5092665;28;20476;-76
2022/08/20 03:37:35;;;;;;;8.25;1.80;;;17.10;99.90;;;;;;5093421;28;20488;-78
2022/08/20 03:40:04;;;;;;;8.75;1.85;;;16.90;99.90;;;;;;5093734;28;20040;-77
2022/08/20 03:42:30;;;;;;;9.30;2.03;;;16.90;99.90;;;;;;5093776;28;20084;-78
2022/08/20 03:44:55;;;;;;;;;;;16.90;99.90;;;;;;5109753;28;20080;-77
2022/08/20 03:47:22;;;;;;;6.75;1.90;;;16.70;99.90;;;;;;5093606;28;19931;-74
2022/08/20 03:49:49;;;;;;;9.90;1.50;;;16.80;99.90;;;;;;5093594;28;20052;-77
2022/08/20 03:52:16;;;;;;;10.90;3.33;;;16.60;99.90;;;;;;5092828;28;20083;-78
2022/08/20 03:54:44;;;;;;;6.43;1.95;;;16.50;99.90;;;;;;5093486;28;20058;-76
2022/08/20 03:57:15;;;;;;;11.48;2.33;;;16.70;99.90;;;;;;5093402;28;20048;-77
2022/08/20 03:59:43;;;;;;;14.73;2.17;;;16.70;99.90;;;;;;5093146;28;20052;-77
2022/08/20 04:02:10;;;;;;;8.75;1.63;;;16.70;99.90;;;;;;5093335;28;20046;-76
2022/08/20 04:04:37;;;;;;;8.57;1.50;;;16.50;99.90;;;;;;5093347;28;20376;-76
2022/08/20 04:07:11;;;;;;;9.57;2.03;;;16.60;99.90;;;;;;5093256;28;20102;-76
2022/08/20 04:09:38;;;;;;;8.00;1.55;;;16.60;99.90;;;;;;5075285;28;20132;-79
2022/08/20 04:12:05;;;;;;;6.60;1.90;;;17.20;99.90;;;;;;5093153;28;20160;-79
2022/08/20 04:14:32;;;;;;;6.97;1.50;;;16.40;99.90;;;;;;5092799;28;20122;-77
2022/08/20 04:16:58;;;;;;;9.05;1.58;;;16.50;99.90;;;;;;5093078;28;20044;-78
2022/08/20 04:19:23;;;;;;;;;;;16.50;99.90;;;;;;5093171;28;20044;-77
2022/08/20 04:21:49;;;;;;;8.90;1.58;;;16.40;99.90;;;;;;5092936;28;19997;-77
2022/08/20 04:24:14;;;;;;;;;;;16.30;99.90;;;;;;5093096;28;20511;-78
2022/08/20 04:26:41;;;;;;;10.32;1.88;;;16.20;99.90;;;;;;5091940;28;19924;-77
2022/08/20 04:29:07;;;;;;;7.43;1.70;;;16.40;99.90;;;;;;5092376;28;20047;-77
2022/08/20 04:31:33;;;;;;;;;;;16.30;99.90;;;;;;5091506;28;20052;-78
2022/08/20 04:34:00;;;;;;;7.00;1.60;;;16.30;99.90;;;;;;5092804;28;19920;-79
2022/08/20 04:36:26;;;;;;;10.85;1.70;;;16.20;99.90;;;;;;5092774;28;20059;-77
2022/08/20 04:38:52;;;;;;;;;;;16.00;99.90;;;;;;5092174;28;20427;-78
2022/08/20 04:41:21;;;;;;;5.60;1.30;;;16.00;99.90;;;;;;5092822;28;19942;-78
2022/08/20 04:43:47;;;;;;;6.82;1.70;;;16.10;99.90;;;;;;5092562;28;20101;-77
2022/08/20 04:46:13;;;;;;;;;;;16.00;99.90;;;;;;5092234;28;20040;-79
2022/08/20 04:48:39;;;;;;;9.15;1.58;;;15.80;99.90;;;;;;5092438;28;20295;-77
2022/08/20 04:51:07;;;;;;;4.22;1.42;;;15.70;99.90;;;;;;5092528;28;20055;-76
2022/08/20 04:53:33;;;;;;;8.02;2.13;;;15.70;99.90;;;;;;5091340;28;20040;-77
2022/08/20 04:56:00;;;;;;;5.63;1.45;;;16.20;99.90;;;;;;5092429;28;20058;-77
2022/08/20 04:58:32;;;;;;;7.78;1.60;;;15.80;99.90;;;;;;5091128;28;20164;-77
2022/08/20 05:01:00;;;;;;;9.20;1.70;;;15.70;99.90;;;;;;5092515;28;20040;-76
2022/08/20 05:03:27;;;;;;;8.23;2.00;;;15.90;99.90;;;;;;5091481;28;20044;-77
2022/08/20 05:05:52;;;;;;;6.40;1.60;;;15.80;99.90;;;;;;5092332;28;20040;-77
2022/08/20 05:08:21;;;;;;;;;;;15.70;99.90;;;;;;5092786;28;20392;-78
2022/08/20 05:10:48;;;;;;;6.30;1.50;;;16.00;99.90;;;;;;5091217;28;20364;-77
2022/08/20 05:13:15;;;;;;;9.40;1.80;;;15.80;99.90;;;;;;5091863;28;20051;-77
2022/08/20 05:15:44;;;;;;;6.18;1.70;;;15.70;99.90;;;;;;5092219;28;20131;-77
2022/08/20 05:18:11;;;;;;;4.80;1.30;;;15.90;99.90;;;;;;5092216;28;20127;-78
2022/08/20 05:20:39;;;;;;;5.93;1.58;;;15.60;99.90;;;;;;5074238;28;20079;-77
2022/08/20 05:23:08;;;;;;;8.88;1.50;;;15.60;99.90;;;;;;5092177;28;20036;-77
2022/08/20 05:25:34;;;;;;;6.75;1.63;;;15.50;99.90;;;;;;5092213;28;20083;-77
2022/08/20 05:28:08;;;;;;;8.68;1.42;;;15.50;99.90;;;;;;5091918;28;20052;-79
2022/08/20 05:30:36;;;;;;;6.55;1.70;;;15.80;99.90;;;;;;5088663;28;20056;-78
2022/08/20 05:33:04;;;;;;;7.18;1.45;;;15.80;99.90;;;;;;5097283;28;20051;-75
2022/08/20 05:35:33;;;;;;;7.72;1.60;;;16.00;99.90;;;;;;5098499;28;20429;-78
2022/08/20 05:38:00;;;;;;;6.43;1.60;;;15.90;99.90;;;;;;5101541;28;20060;-78
2022/08/20 05:40:27;;;;;;;5.40;1.60;;;16.10;99.90;;;;;;5099101;28;20051;-78
2022/08/20 05:42:53;;;;;;;10.27;1.75;;;16.20;99.90;;;;;;5102237;28;20075;-78
2022/08/20 05:45:20;;;;;;;8.18;1.50;;;16.10;99.90;;;;;;5097835;28;20381;-78
2022/08/20 05:47:47;;;;;;;5.93;1.50;;;15.90;99.90;;;;;;5097457;28;20109;-78
2022/08/20 05:50:14;;;;;;;4.90;1.67;;;15.80;99.90;;;;;;5100324;28;20484;-77
2022/08/20 05:52:41;;;;;;;7.95;1.60;;;16.10;99.90;;;;;;5099244;28;20048;-75
2022/08/20 05:55:12;;;;;;;8.45;2.05;;;15.70;99.90;;;;;;5094875;28;20483;-81
2022/08/20 05:57:38;;;;;;;7.40;2.08;;;15.60;99.90;;;;;;5101478;28;20044;-81
2022/08/20 06:00:08;;;;;;;5.93;2.10;;;15.90;99.90;;;;;;5086739;28;20376;-79
2022/08/20 06:05:18;;;;;;;9.75;2.22;;;16.00;99.90;;;;;;5100781;28;20399;-78
2022/08/20 06:07:44;;;;;;;;;;;16.00;99.90;;;;;;5098790;28;20044;-79
2022/08/20 06:10:10;;;;;;;7.22;2.08;;;16.10;99.90;;;;;;5091395;28;20354;-79
2022/08/20 06:12:36;;;;;;;8.52;2.40;;;16.00;99.90;;;;;;5096261;28;20079;-75
2022/08/20 06:15:02;;;;;;;;;;;16.40;99.90;;;;;;5100899;28;20067;-78
2022/08/20 06:17:28;;;;;;;6.95;2.20;;;16.50;99.90;;;;;;5100344;28;19925;-82
2022/08/20 06:19:54;;;;;;;;;;;16.40;99.90;;;;;;5102396;28;20039;-82
2022/08/20 06:22:19;;;;;;;7.25;2.00;;;16.90;99.90;;;;;;5098911;28;19920;-80
2022/08/20 06:24:45;;;;;;;;;;;16.70;99.90;;;;;;5101822;28;20052;-79
2022/08/20 06:27:14;;;;;;;5.68;1.85;;;16.80;99.90;;;;;;5081203;28;20388;-79
2022/08/20 06:29:40;;;;;;;9.10;1.70;;;17.30;99.90;;;;;;5071973;28;20145;-80
2022/08/20 06:32:06;;;;;;;7.25;1.63;;;17.10;99.90;;;;;;5074587;28;20512;-79
2022/08/20 06:34:32;;;;;;;;;;;17.30;99.90;;;;;;5075011;28;20048;-80
2022/08/20 06:36:58;;;;;;;10.02;1.70;;;17.90;99.90;;;;;;5074750;28;19927;-79
2022/08/20 06:39:28;;;;;;;8.50;1.58;;;17.70;99.90;;;;;;5104535;28;20592;-76
2022/08/20 06:41:55;;;;;;;5.72;1.65;;;18.10;99.90;;;;;;5115188;28;20096;-74
2022/08/20 06:44:20;;;;;;;5.88;1.60;;;18.20;99.90;;;;;;5114634;28;20051;-75
2022/08/20 06:46:46;;;;;;;;;;;18.30;99.90;;;;;;5111655;28;20400;-76
2022/08/20 06:49:11;;;;;;;8.68;1.70;;;18.30;99.90;;;;;;5094476;28;19930;-75
2022/08/20 06:51:37;;;;;;;;;;;18.60;99.90;;;;;;5095144;28;20105;-76
2022/08/20 06:54:04;;;;;;;5.65;1.55;;;18.70;99.90;;;;;;5105588;28;19919;-79
2022/08/20 06:56:30;;;;;;;6.30;1.88;;;18.80;99.90;;;;;;5076200;28;20408;-79
2022/08/20 06:58:56;;;;;;;8.32;1.80;;;18.90;99.90;;;;;;5094282;28;20048;-78
2022/08/20 07:01:21;;;;;;;;;;;18.70;99.90;;;;;;5093677;28;20094;-79
2022/08/20 07:03:48;;;;;;;8.98;2.08;;;19.20;99.90;;;;;;5094226;28;19927;-79
2022/08/20 07:06:15;;;;;;;6.15;1.42;;;19.00;99.90;;;;;;5094493;28;20054;-81
2022/08/20 07:08:42;;;;;;;7.28;1.67;;;19.10;99.90;;;;;;5093965;28;20052;-79
2022/08/20 07:11:09;;;;;;;6.93;2.28;;;19.20;99.90;;;;;;5086984;28;20055;-79
2022/08/20 07:13:36;;;;;;;8.02;1.70;;;19.60;99.90;;;;;;5104227;27;20514;-75
2022/08/20 07:16:06;;;;;;;7.25;1.75;;;19.30;99.90;;;;;;5100879;28;20044;-77
2022/08/20 07:18:32;;;;;;;7.50;1.58;;;19.40;99.90;;;;;;5100367;28;20082;-76
2022/08/20 07:20:58;;;;;;;6.65;1.58;;;19.70;99.90;;;;;;5095554;28;20059;-78
2022/08/20 07:23:25;;;;;;;8.38;1.90;;;19.70;99.90;;;;;;5102611;28;20032;-77
2022/08/20 07:25:51;;;;;;;9.88;1.90;;;19.90;99.90;;;;;;5101456;28;20040;-79
2022/08/20 07:28:19;;;;;;;7.13;1.85;;;19.40;99.90;;;;;;5095600;28;20052;-77
2022/08/20 07:33:30;;;;;;;5.97;1.80;;;19.70;99.90;;;;;;5093207;28;20063;-77
2022/08/20 07:36:02;;;;;;;11.05;2.00;;;19.70;99.90;;;;;;5092264;28;20048;-75
2022/08/20 07:38:30;;;;;;;7.28;1.70;;;20.00;99.90;;;;;;5091329;28;20052;-77
2022/08/20 07:41:05;;;;;;;5.38;2.08;;;20.00;99.90;;;;;;5092502;28;20063;-78
2022/08/20 07:43:32;;;;;;;4.18;1.38;;;19.80;99.90;;;;;;5093734;28;20052;-76
2022/08/20 07:46:00;;;;;;;6.65;1.92;;;19.80;99.90;;;;;;5092276;28;20484;-78
2022/08/20 07:48:30;;;;;;;5.68;1.40;;;20.20;99.90;;;;;;5093558;28;20048;-78
2022/08/20 07:51:04;;;;;;;6.85;1.63;;;20.10;99.90;;;;;;5093545;28;20048;-76
2022/08/20 07:53:35;;;;;;;8.00;1.80;;;20.20;99.90;;;;;;5093170;28;20044;-74
2022/08/20 07:56:13;;;;;;;8.98;1.67;;;20.40;99.90;;;;;;5091977;28;20169;-78
2022/08/20 07:58:42;;;;;;;7.75;1.95;;;19.90;99.90;;;;;;5093430;28;20087;-77
2022/08/20 08:01:10;;;;;;;10.88;1.80;;;20.40;99.90;;;;;;5093341;28;20494;-77
2022/08/20 08:03:36;;;;;;;4.50;1.60;;;20.20;99.90;;;;;;5092132;28;20125;-78
2022/08/20 08:06:03;;;;;;;8.38;1.90;;;20.60;99.90;;;;;;5091850;28;20051;-77
2022/08/20 08:08:31;;;;;;;7.50;1.83;;;20.60;99.90;;;;;;5074934;28;20551;-78
2022/08/20 08:10:59;;;;;;;8.85;2.05;;;20.50;99.90;;;;;;5092996;28;20052;-78
2022/08/20 08:13:28;;;;;;;7.10;1.73;;;20.70;99.90;;;;;;5091762;28;20048;-78
2022/08/20 08:15:56;;;;;;;10.50;1.83;;;20.20;99.90;;;;;;5091972;28;20052;-79
2022/08/20 08:18:26;;;;;;;12.68;1.90;;;20.70;99.90;;;;;;5091692;28;20044;-79
2022/08/20 08:20:53;;;;;;;9.50;1.50;;;20.70;99.90;;;;;;5091699;28;20052;-78
2022/08/20 08:23:21;;;;;;;9.38;1.70;;;21.00;99.90;;;;;;5092985;28;20094;-78
2022/08/20 08:25:50;;;;;;;6.40;1.90;;;21.00;99.90;;;;;;5092935;28;20044;-79
2022/08/20 08:28:16;;;;;;;9.13;1.88;;;20.70;99.90;;;;;;5092836;28;20578;-80
2022/08/20 08:30:43;;;;;;;11.77;2.08;;;21.20;99.90;;;;;;5093026;28;20134;-79
2022/08/20 08:33:27;;;;;;;6.85;2.20;;;21.00;99.90;;;;;;5092707;28;20039;-77
2022/08/20 08:35:55;;;;;;;7.05;1.83;;;21.00;99.90;;;;;;5091098;28;20052;-81
2022/08/20 08:38:22;;;;;;;9.82;1.77;;;21.20;99.90;;;;;;5092356;28;20044;-80
2022/08/20 08:40:53;;;;;;;8.82;1.90;;;20.80;99.90;;;;;;5092536;28;20532;-79
2022/08/20 08:43:21;;;;;;;13.20;2.10;;;20.90;99.90;;;;;;5092735;28;20075;-80
2022/08/20 08:46:04;;;;;;;9.18;1.90;;;21.00;99.90;;;;;;5092549;28;20101;-80
2022/08/20 08:48:37;;;;;;;5.88;1.52;;;21.10;99.90;;;;;;5092611;28;20388;-78
2022/08/20 08:51:11;;;;;;;8.30;1.90;;;20.90;99.90;;;;;;5092101;28;20136;-81
2022/08/20 08:53:57;;;;;;;9.77;2.30;;;21.00;99.90;;;;;;5074313;28;20119;-78
2022/08/20 08:56:26;;;;;;;7.63;1.75;;;21.00;99.90;;;;;;5090947;28;20056;-80
2022/08/20 08:58:54;;;;;;;7.53;2.00;;;21.10;99.90;;;;;;5092204;28;20059;-80
2022/08/20 09:01:22;;;;;;;9.20;1.80;;;21.20;99.90;;;;;;5092380;28;20048;-80
2022/08/20 09:03:50;;;;;;;9.32;1.70;;;21.30;99.90;;;;;;5090992;28;20055;-79
2022/08/20 09:06:22;;;;;;;8.13;1.73;;;21.00;99.90;;;;;;5092239;28;20048;-78
2022/08/20 09:08:59;;;;;;;6.65;1.65;;;21.20;99.90;;;;;;5091964;28;20778;-79
2022/08/20 09:11:26;;;;;;;7.78;1.40;;;21.90;99.90;;;;;;5092201;28;20059;-79
2022/08/20 09:13:53;;;;;;;6.93;1.50;;;21.60;99.90;;;;;;5073980;28;20059;-79
2022/08/20 09:16:21;;;;;;;10.35;1.85;;;21.50;99.90;;;;;;5090836;28;20052;-79
2022/08/20 09:18:47;;;;;;;6.72;1.70;;;21.60;99.90;;;;;;5090739;28;20158;-80
2022/08/20 09:21:13;;;;;;;10.60;2.03;;;21.50;99.90;;;;;;5090971;28;20055;-78
2022/08/20 09:23:40;;;;;;;4.90;1.60;;;21.60;99.90;;;;;;5091805;28;20044;-81
2022/08/20 09:26:05;;;;;;;11.05;2.00;;;21.70;99.90;;;;;;5091104;28;20173;-80
2022/08/20 09:28:31;;;;;;;9.05;1.95;;;21.20;99.90;;;;;;5092044;28;20134;-78
2022/08/20 09:30:57;;;;;;;11.35;2.42;;;21.50;99.90;;;;;;5090407;28;20063;-80
2022/08/20 09:33:23;;;;;;;7.80;2.10;;;21.30;99.90;;;;;;5091610;28;20044;-80
2022/08/20 09:35:49;;;;;;;10.80;1.90;;;21.70;99.90;;;;;;5091895;28;20055;-79
2022/08/20 09:38:15;;;;;;;10.05;2.42;;;21.70;99.90;;;;;;5091972;28;20044;-78
2022/08/20 09:40:41;;;;;;;7.57;1.88;;;21.50;99.90;;;;;;5092133;28;20575;-78
2022/08/20 09:43:07;;;;;;;7.15;1.63;;;21.50;99.90;;;;;;5091836;28;20040;-80
2022/08/20 09:45:34;;;;;;;10.75;2.20;;;21.40;99.90;;;;;;5091833;28;20376;-79
2022/08/20 09:47:59;;;;;;;7.97;2.03;;;21.30;99.90;;;;;;5091536;28;20055;-79
2022/08/20 09:50:27;;;;;;;7.35;1.80;;;21.40;99.90;;;;;;5093973;28;20048;-79
2022/08/20 09:52:55;;;;;;;11.52;2.10;;;21.90;99.90;;;;;;5094480;28;20101;-79
2022/08/20 09:55:34;;;;;;;10.02;1.85;;;21.90;99.90;;;;;;5094415;28;20399;-79
2022/08/20 09:58:20;;;;;;;5.57;1.80;;;22.30;99.90;;;;;;5095754;28;20093;-78
2022/08/20 10:00:46;;;;;;;13.50;2.08;;;22.10;99.90;;;;;;5094247;28;20083;-79
2022/08/20 10:03:12;;;;;;;4.05;1.50;;;22.10;99.90;;;;;;5094220;28;20052;-79
2022/08/20 10:05:38;;;;;;;8.05;2.40;;;22.60;99.90;;;;;;5095607;28;20125;-80
2022/08/20 10:08:06;;;;;;;11.15;1.95;;;22.80;99.90;;;;;;5077425;28;20051;-79
2022/08/20 10:10:31;;;;;;;7.07;1.83;;;22.70;99.90;;;;;;5095414;28;20102;-80
2022/08/20 10:12:57;;;;;;;5.93;1.60;;;22.60;99.90;;;;;;5095171;28;20052;-79
2022/08/20 10:15:23;;;;;;;6.32;1.77;;;22.70;99.90;;;;;;5095019;28;20048;-79
2022/08/20 10:17:48;;;;;;;8.10;1.80;;;23.10;99.90;;;;;;5095338;28;20048;-76
2022/08/20 10:20:17;;;;;;;5.50;1.75;;;22.90;99.90;;;;;;5085461;28;20456;-78
2022/08/20 10:22:43;;;;;;;5.30;1.85;;;23.00;99.90;;;;;;5094054;28;20522;-74
2022/08/20 10:25:10;;;;;;;7.30;2.00;;;22.70;99.90;;;;;;5095021;28;20051;-77
2022/08/20 10:27:36;;;;;;;6.15;1.83;;;22.40;99.90;;;;;;5093809;28;20063;-77
2022/08/20 10:30:04;;;;;;;7.03;1.92;;;22.00;99.90;;;;;;5095991;28;20142;-74
2022/08/20 10:32:30;;;;;;;7.85;1.92;;;21.80;99.90;;;;;;5078104;28;20055;-72
2022/08/20 10:34:55;;;;;;;10.25;2.67;;;21.50;99.90;;;;;;5085126;28;20047;-76
2022/08/20 10:37:23;;;;;;;4.60;1.70;;;21.60;99.90;;;;;;5114514;28;20527;-75
2022/08/20 10:39:50;;;;;;;10.30;2.03;;;22.20;99.90;;;;;;5114572;28;20044;-77
2022/08/20 10:42:15;;;;;;;4.93;1.65;;;22.30;99.90;;;;;;5096056;28;20055;-75
2022/08/20 10:44:41;;;;;;;4.80;1.75;;;22.60;99.90;;;;;;5112436;28;20095;-76
2022/08/20 10:47:33;;;;;;;10.85;1.85;;;22.40;99.90;;;;;;5114018;28;20040;-74
2022/08/20 10:50:01;;;;;;;4.55;1.50;;;22.10;99.90;;;;;;5110541;27;20407;-76
2022/08/20 10:52:27;;;;;;;6.78;2.03;;;22.50;99.90;;;;;;5114001;28;20055;-76
2022/08/20 10:54:54;;;;;;;8.75;1.90;;;22.50;99.90;;;;;;5114095;28;20039;-77
2022/08/20 10:57:28;;;;;;;10.02;1.75;;;22.70;99.90;;;;;;5099178;28;20147;-75
2022/08/20 10:59:56;;;;;;;4.95;1.77;;;23.30;99.90;;;;;;5074759;28;20048;-76
2022/08/20 11:02:22;;;;;;;7.38;1.75;;;23.20;99.90;;;;;;5099232;28;20087;-78
2022/08/20 11:04:49;;;;;;;6.72;1.92;;;23.10;99.90;;;;;;5112950;28;20134;-75
2022/08/20 11:07:26;;;;;;;6.00;1.50;;;23.30;99.90;;;;;;5112742;28;20051;-75
2022/08/20 11:09:52;;;;;;;6.70;1.80;;;23.40;99.90;;;;;;5114132;28;20051;-75
2022/08/20 11:12:19;;;;;;;9.40;2.17;;;23.60;99.90;;;;;;5086338;28;20467;-74
2022/08/20 11:14:46;;;;;;;8.15;1.80;;;23.20;99.90;;;;;;5099291;28;20429;-73
2022/08/20 11:17:12;;;;;;;7.45;1.80;;;22.90;99.90;;;;;;5100261;28;20514;-75
2022/08/20 11:19:41;;;;;;;8.27;1.98;;;23.30;99.90;;;;;;5100390;28;20048;-73
2022/08/20 11:22:08;;;;;;;11.45;2.10;;;23.60;99.90;;;;;;5102444;28;20044;-74
2022/08/20 11:24:34;;;;;;;6.53;2.53;;;23.60;99.90;;;;;;5103131;28;20043;-74
2022/08/20 11:27:00;;;;;;;10.90;2.25;;;23.80;99.90;;;;;;5092643;28;20119;-72
2022/08/20 11:29:25;;;;;;;5.93;1.73;;;24.30;99.90;;;;;;5092484;28;20497;-76
2022/08/20 11:31:51;;;;;;;7.40;1.90;;;24.80;99.90;;;;;;5093381;28;20060;-72
2022/08/20 11:34:17;;;;;;;6.13;1.80;;;24.70;99.90;;;;;;5093863;28;20430;-75
2022/08/20 11:36:45;;;;;;;7.25;1.88;;;25.00;99.90;;;;;;5093915;28;20864;-73
2022/08/20 11:39:11;;;;;;;6.80;2.05;;;24.70;99.90;;;;;;5093771;28;20048;-77
2022/08/20 11:41:37;;;;;;;5.93;1.67;;;25.00;99.90;;;;;;5093693;28;20093;-74
2022/08/20 11:44:03;;;;;;;9.43;1.50;;;24.90;99.90;;;;;;5093074;28;20093;-76
2022/08/20 11:46:28;;;;;;;5.95;1.80;;;24.50;99.90;;;;;;5093620;28;20048;-76
2022/08/20 11:48:54;;;;;;;6.32;1.90;;;24.20;99.90;;;;;;5093328;28;20136;-75
2022/08/20 11:51:20;;;;;;;5.43;1.92;;;24.30;99.90;;;;;;5093576;28;20052;-75
2022/08/20 11:53:45;;;;;;;7.38;1.45;;;24.10;99.90;;;;;;5092144;28;20377;-74
2022/08/20 11:56:13;;;;;;;8.50;2.03;;;24.30;99.90;;;;;;5093489;28;20509;-75
2022/08/20 11:58:38;;;;;;;9.25;2.10;;;24.70;99.90;;;;;;5093182;28;20071;-76
2022/08/20 12:01:04;;;;;;;4.85;1.40;;;24.50;99.90;;;;;;5093388;28;20040;-75
2022/08/20 12:03:30;;;;;;;6.07;1.70;;;24.50;99.90;;;;;;5093261;28;20039;-74
2022/08/20 12:05:56;;;;;;;4.65;1.75;;;24.90;99.90;;;;;;5093258;28;20467;-74
2022/08/20 12:08:22;;;;;;;8.90;1.83;;;24.10;99.90;;;;;;5093193;28;20087;-74
2022/08/20 12:10:48;;;;;;;8.70;2.13;;;23.90;99.90;;;;;;5093222;28;20079;-75
2022/08/20 12:13:14;;;;;;;10.10;1.80;;;23.90;99.90;;;;;;5092516;28;20086;-73
2022/08/20 12:15:39;;;;;;;6.28;1.75;;;24.00;99.90;;;;;;5093470;28;20047;-73
2022/08/20 12:18:08;;;;;;;6.55;1.85;;;23.90;99.90;;;;;;5093062;28;20125;-78
2022/08/20 12:20:36;;;;;;;6.30;1.92;;;23.80;99.90;;;;;;5093039;28;20040;-74
2022/08/20 12:23:02;;;;;;;5.63;1.73;;;23.10;99.90;;;;;;5092988;28;20132;-75
2022/08/20 12:25:28;;;;;;;7.28;2.08;;;23.10;99.90;;;;;;5092618;28;20472;-74
2022/08/20 12:27:53;;;;;;;8.90;2.33;;;23.40;99.90;;;;;;5092631;28;20040;-75
2022/08/20 12:30:22;;;;;;;6.90;1.92;;;23.90;99.90;;;;;;5092749;28;20063;-74
2022/08/20 12:32:48;;;;;;;10.00;2.30;;;24.20;99.90;;;;;;5092763;28;20051;-76
2022/08/20 12:35:16;;;;;;;7.25;1.85;;;23.40;99.90;;;;;;5092989;28;20051;-74
2022/08/20 12:37:42;;;;;;;6.22;2.08;;;23.80;99.90;;;;;;5092442;28;20830;-76
2022/08/20 12:40:12;;;;;;;7.53;1.98;;;23.50;99.90;;;;;;5092656;28;20180;-73
2022/08/20 12:42:38;;;;;;;7.32;2.13;;;24.00;99.90;;;;;;5091075;28;20510;-73
2022/08/20 12:45:05;;;;;;;8.02;1.85;;;23.60;99.90;;;;;;5092240;28;20048;-74
2022/08/20 12:47:33;;;;;;;10.30;2.35;;;23.30;99.90;;;;;;5092540;28;20135;-74
2022/08/20 12:50:03;;;;;;;6.60;2.10;;;23.50;99.90;;;;;;5092524;28;20044;-73
2022/08/20 12:52:30;;;;;;;8.88;2.28;;;23.20;99.90;;;;;;5092634;28;20503;-73
2022/08/20 12:54:57;;;;;;;7.50;2.42;;;23.60;99.90;;;;;;5092566;28;20040;-74
2022/08/20 12:57:42;;;;;;;6.93;2.10;;;23.30;99.90;;;;;;5092152;28;20152;-74
2022/08/20 13:00:08;;;;;;;11.63;2.70;;;23.20;99.90;;;;;;5092423;28;20044;-75